createdAt,value
2019-03-19T00:00:22.520Z,10.88
2019-03-19T00:02:50.813Z,13.83
2019-03-19T00:05:19.123Z,12.13
2019-03-19T00:07:47.410Z,21.00
2019-03-19T00:10:15.744Z,15.50
2019-03-19T00:12:44.011Z,16.55
2019-03-19T00:15:12.701Z,14.47
2019-03-19T00:17:40.981Z,13.17
2019-03-19T00:20:14.317Z,13.38
2019-03-19T00:22:42.653Z,12.03
2019-03-19T00:25:11.219Z,15.25
2019-03-19T00:27:39.524Z,13.58
2019-03-19T00:30:13.041Z,15.50
2019-03-19T00:32:41.324Z,14.73
2019-03-19T00:35:09.696Z,16.32
2019-03-19T00:37:38.082Z,17.30
2019-03-19T00:40:10.817Z,10.08
2019-03-19T00:42:39.121Z,13.05
2019-03-19T00:45:15.016Z,14.45
2019-03-19T00:47:43.475Z,15.98
2019-03-19T00:50:15.618Z,11.00
2019-03-19T00:52:44.028Z,13.70
2019-03-19T00:55:12.655Z,18.17
2019-03-19T00:57:40.976Z,19.32
2019-03-19T01:00:14.283Z,14.70
2019-03-19T01:02:42.649Z,22.15
2019-03-19T01:05:11.182Z,20.10
2019-03-19T01:07:39.500Z,25.55
2019-03-19T01:10:12.926Z,18.62
2019-03-19T01:12:41.212Z,12.43
2019-03-19T01:15:11.173Z,13.90
2019-03-19T01:17:39.488Z,12.63
2019-03-19T01:20:10.437Z,11.78
2019-03-19T01:22:38.789Z,11.55
2019-03-19T01:25:09.136Z,11.07
2019-03-19T01:27:37.420Z,16.25
2019-03-19T01:30:12.033Z,13.15
2019-03-19T01:32:40.667Z,12.55
2019-03-19T01:35:08.979Z,16.20
2019-03-19T01:37:37.635Z,10.73
2019-03-19T01:40:08.754Z,15.88
2019-03-19T01:42:37.084Z,14.90
2019-03-19T01:45:13.090Z,17.73
2019-03-19T01:47:41.350Z,14.85
2019-03-19T01:50:14.732Z,13.20
2019-03-19T01:52:43.087Z,12.78
2019-03-19T01:55:14.794Z,13.50
2019-03-19T01:57:43.101Z,11.20
2019-03-19T02:00:15.758Z,13.22
2019-03-19T02:02:44.144Z,13.90
2019-03-19T02:05:12.632Z,11.50
2019-03-19T02:07:40.946Z,16.00
2019-03-19T02:10:13.974Z,11.05
2019-03-19T02:12:42.697Z,16.27
2019-03-19T02:15:17.942Z,17.40
2019-03-19T02:17:46.241Z,16.75
2019-03-19T02:20:18.657Z,16.82
2019-03-19T02:22:46.959Z,14.75
2019-03-19T02:25:15.335Z,14.00
2019-03-19T02:27:43.914Z,13.70
2019-03-19T02:30:18.018Z,18.50
2019-03-19T02:32:46.349Z,13.53
2019-03-19T02:35:14.701Z,13.87
2019-03-19T02:37:43.109Z,15.72
2019-03-19T02:40:18.922Z,15.80
2019-03-19T02:42:47.281Z,12.25
2019-03-19T02:45:16.279Z,20.70
2019-03-19T02:47:44.989Z,16.52
2019-03-19T02:50:17.175Z,18.77
2019-03-19T02:52:45.530Z,12.40
2019-03-19T02:55:13.905Z,13.18
2019-03-19T02:57:42.198Z,17.73
2019-03-19T03:00:16.012Z,12.33
2019-03-19T03:02:44.488Z,13.75
2019-03-19T03:05:19.046Z,14.20
2019-03-19T03:07:47.336Z,16.35
2019-03-19T03:10:15.822Z,20.33
2019-03-19T03:12:44.534Z,14.63
2019-03-19T03:15:14.215Z,13.70
2019-03-19T03:17:42.771Z,14.75
2019-03-19T03:20:14.754Z,13.65
2019-03-19T03:22:43.088Z,18.87
2019-03-19T03:25:15.746Z,13.70
2019-03-19T03:27:44.063Z,14.93
2019-03-19T03:30:25.203Z,14.60
2019-03-19T03:32:53.595Z,16.70
2019-03-19T03:35:22.479Z,21.02
2019-03-19T03:37:50.774Z,13.50
2019-03-19T03:40:19.793Z,18.02
2019-03-19T03:42:48.178Z,14.38
2019-03-19T03:45:17.415Z,16.62
2019-03-19T03:47:45.815Z,21.48
2019-03-19T03:50:17.762Z,20.50
2019-03-19T03:52:46.084Z,19.35
2019-03-19T03:55:15.432Z,21.30
2019-03-19T03:57:43.755Z,15.98
2019-03-19T04:00:20.106Z,17.37
2019-03-19T04:02:48.435Z,17.35
2019-03-19T04:05:16.918Z,18.42
2019-03-19T04:07:45.505Z,17.33
2019-03-19T04:10:21.198Z,22.82
2019-03-19T04:12:49.508Z,20.52
2019-03-19T04:15:18.627Z,22.17
2019-03-19T04:17:46.998Z,20.65
2019-03-19T04:20:17.017Z,21.12
2019-03-19T04:22:45.831Z,24.82
2019-03-19T04:25:14.143Z,21.00
2019-03-19T04:27:42.716Z,18.30
2019-03-19T04:30:15.892Z,16.65
2019-03-19T04:32:44.253Z,16.82
2019-03-19T04:35:12.820Z,17.30
2019-03-19T04:37:41.124Z,18.60
2019-03-19T04:40:14.303Z,14.98
2019-03-19T04:42:43.671Z,20.30
2019-03-19T04:45:13.398Z,13.43
2019-03-19T04:47:41.684Z,22.32
2019-03-19T04:50:13.002Z,19.15
2019-03-19T04:52:41.321Z,14.85
2019-03-19T04:55:10.854Z,21.42
2019-03-19T04:57:39.178Z,20.85
2019-03-19T05:00:15.597Z,23.27
2019-03-19T05:02:43.891Z,14.70
2019-03-19T05:05:13.163Z,23.27
2019-03-19T05:07:41.470Z,26.48
2019-03-19T05:10:18.777Z,13.85
2019-03-19T05:12:47.145Z,17.52
2019-03-19T05:15:15.695Z,17.35
2019-03-19T05:17:44.046Z,20.60
2019-03-19T05:20:13.362Z,14.23
2019-03-19T05:22:41.766Z,17.55
2019-03-19T05:25:10.861Z,20.53
2019-03-19T05:27:39.107Z,18.50
2019-03-19T05:30:10.551Z,22.58
2019-03-19T05:32:38.850Z,19.60
2019-03-19T05:35:09.353Z,19.50
2019-03-19T05:37:37.673Z,21.62
2019-03-19T05:40:14.163Z,23.50
2019-03-19T05:42:42.545Z,17.13
2019-03-19T05:45:12.966Z,22.48
2019-03-19T05:47:41.284Z,87.47
2019-03-19T05:50:16.861Z,26.85
2019-03-19T05:52:45.158Z,24.05
2019-03-19T05:55:13.628Z,22.05
2019-03-19T05:57:49.331Z,23.13
2019-03-19T06:00:15.583Z,23.33
2019-03-19T06:02:43.890Z,17.73
2019-03-19T06:05:12.676Z,21.10
2019-03-19T06:07:41.314Z,22.80
2019-03-19T06:10:11.255Z,19.35
2019-03-19T06:12:39.642Z,24.23
2019-03-19T06:15:15.557Z,19.20
2019-03-19T06:17:43.873Z,18.75
2019-03-19T06:20:15.359Z,16.20
2019-03-19T06:22:43.841Z,21.93
2019-03-19T06:25:13.170Z,16.50
2019-03-19T06:27:41.466Z,15.23
2019-03-19T06:30:15.285Z,19.23
2019-03-19T06:32:43.622Z,25.65
2019-03-19T06:35:12.942Z,22.80
2019-03-19T06:37:41.483Z,20.20
2019-03-19T06:40:12.692Z,23.45
2019-03-19T06:42:41.246Z,23.03
2019-03-19T06:45:12.159Z,18.65
2019-03-19T06:47:40.450Z,25.82
2019-03-19T06:50:16.780Z,25.70
2019-03-19T06:52:45.235Z,24.02
2019-03-19T06:55:14.596Z,21.82
2019-03-19T06:57:42.899Z,22.00
2019-03-19T07:00:14.722Z,24.20
2019-03-19T07:02:43.023Z,25.48
2019-03-19T07:05:11.389Z,27.10
2019-03-19T07:07:39.768Z,28.52
2019-03-19T07:10:13.078Z,26.82
2019-03-19T07:12:41.402Z,27.02
2019-03-19T07:15:20.239Z,27.13
2019-03-19T07:17:48.723Z,32.95
2019-03-19T07:20:19.389Z,28.92
2019-03-19T07:22:47.694Z,26.45
2019-03-19T07:25:17.675Z,26.35
2019-03-19T07:27:45.987Z,30.77
2019-03-19T07:30:16.915Z,29.95
2019-03-19T07:32:45.288Z,29.37
2019-03-19T07:35:13.659Z,29.63
2019-03-19T07:37:42.227Z,32.65
2019-03-19T07:40:12.407Z,27.95
2019-03-19T07:42:40.949Z,27.85
2019-03-19T07:45:21.865Z,38.42
2019-03-19T07:47:50.155Z,32.65
2019-03-19T07:50:22.649Z,30.68
2019-03-19T07:52:51.593Z,33.25
2019-03-19T07:55:19.914Z,35.97
2019-03-19T07:57:48.622Z,26.42
2019-03-19T08:00:18.880Z,20.40
2019-03-19T08:02:47.164Z,30.55
2019-03-19T08:05:15.812Z,30.13
2019-03-19T08:07:44.114Z,26.68
2019-03-19T08:10:13.661Z,28.85
2019-03-19T08:12:41.946Z,26.17
2019-03-19T08:15:18.172Z,25.35
2019-03-19T08:17:46.798Z,30.52
2019-03-19T08:20:18.471Z,34.30
2019-03-19T08:22:47.139Z,28.40
2019-03-19T08:25:17.376Z,28.80
2019-03-19T08:27:46.074Z,28.90
2019-03-19T08:30:24.909Z,29.60
2019-03-19T08:32:53.828Z,25.80
2019-03-19T08:35:22.057Z,27.77
2019-03-19T08:37:50.376Z,28.35
2019-03-19T08:40:19.520Z,26.33
2019-03-19T08:42:47.827Z,27.80
2019-03-19T08:45:24.175Z,22.85
2019-03-19T08:47:52.840Z,27.52
2019-03-19T08:50:24.606Z,31.45
2019-03-19T08:52:55.194Z,26.02
2019-03-19T08:55:23.250Z,31.87
2019-03-19T08:57:51.897Z,27.50
2019-03-19T09:00:21.592Z,25.27
2019-03-19T09:02:49.900Z,25.70
2019-03-19T09:05:18.553Z,22.25
2019-03-19T09:07:46.866Z,25.68
2019-03-19T09:10:19.079Z,25.60
2019-03-19T09:12:48.646Z,21.87
2019-03-19T09:15:19.058Z,20.62
2019-03-19T09:17:47.362Z,18.50
2019-03-19T09:20:16.602Z,22.60
2019-03-19T09:22:44.975Z,19.45
2019-03-19T09:25:13.286Z,23.50
2019-03-19T09:27:41.588Z,17.52
2019-03-19T09:30:13.398Z,21.07
2019-03-19T09:32:41.746Z,18.37
2019-03-19T09:35:10.024Z,20.80
2019-03-19T09:37:44.349Z,19.55
2019-03-19T09:40:11.877Z,23.30
2019-03-19T09:42:40.191Z,24.65
2019-03-19T09:45:09.910Z,16.27
2019-03-19T09:47:38.673Z,18.60
2019-03-19T09:50:12.711Z,12.10
2019-03-19T09:52:41.447Z,16.52
2019-03-19T09:55:11.883Z,18.67
2019-03-19T09:57:40.193Z,19.70
2019-03-19T10:00:17.515Z,13.95
2019-03-19T10:02:46.204Z,17.23
2019-03-19T10:05:14.979Z,12.50
2019-03-19T10:07:43.293Z,8.80
2019-03-19T10:10:21.928Z,12.40
2019-03-19T10:12:50.324Z,8.98
2019-03-19T10:15:18.885Z,12.55
2019-03-19T10:17:47.397Z,12.68
2019-03-19T10:20:18.089Z,10.40
2019-03-19T10:22:46.793Z,11.85
2019-03-19T10:25:16.260Z,15.48
2019-03-19T10:27:44.546Z,19.73
2019-03-19T10:30:16.160Z,12.25
2019-03-19T10:32:44.442Z,15.00
2019-03-19T10:35:12.822Z,14.27
2019-03-19T10:37:41.107Z,15.80
2019-03-19T10:40:11.359Z,16.95
2019-03-19T10:42:40.010Z,16.15
2019-03-19T10:45:13.420Z,10.32
2019-03-19T10:47:41.817Z,9.30
2019-03-19T10:50:19.100Z,13.68
2019-03-19T10:52:47.392Z,11.35
2019-03-19T10:55:15.704Z,9.68
2019-03-19T10:57:44.516Z,8.18
2019-03-19T11:00:21.222Z,15.23
2019-03-19T11:02:49.684Z,13.25
2019-03-19T11:05:18.625Z,7.42
2019-03-19T11:07:46.992Z,6.85
2019-03-19T11:10:17.315Z,8.70
2019-03-19T11:12:45.686Z,9.73
2019-03-19T11:15:16.291Z,10.07
2019-03-19T11:17:44.622Z,12.15
2019-03-19T11:20:15.224Z,9.45
2019-03-19T11:22:43.609Z,9.53
2019-03-19T11:25:14.390Z,5.20
2019-03-19T11:27:43.505Z,11.78
2019-03-19T11:30:18.529Z,10.82
2019-03-19T11:32:46.928Z,9.85
2019-03-19T11:35:15.459Z,10.23
2019-03-19T11:37:44.024Z,9.08
2019-03-19T11:40:15.501Z,7.58
2019-03-19T11:42:43.878Z,13.08
2019-03-19T11:45:15.453Z,12.43
2019-03-19T11:47:44.060Z,10.48
2019-03-19T11:50:15.198Z,9.60
2019-03-19T11:52:43.565Z,7.35
2019-03-19T11:55:14.517Z,11.08
2019-03-19T11:57:42.894Z,11.38
2019-03-19T12:00:17.825Z,9.63
2019-03-19T12:02:46.100Z,13.48
2019-03-19T12:05:14.481Z,10.23
2019-03-19T12:07:43.041Z,12.93
2019-03-19T12:10:11.420Z,6.17
2019-03-19T12:12:39.718Z,8.58
2019-03-19T12:15:10.434Z,13.88
2019-03-19T12:17:38.732Z,12.68
2019-03-19T12:20:09.419Z,9.83
2019-03-19T12:22:37.729Z,12.23
2019-03-19T12:25:08.268Z,9.50
2019-03-19T12:27:36.587Z,11.70
2019-03-19T12:30:21.445Z,10.10
2019-03-19T12:32:40.942Z,11.70
2019-03-19T12:35:10.883Z,10.25
2019-03-19T12:37:39.211Z,14.07
2019-03-19T12:40:11.045Z,11.33
2019-03-19T12:42:39.349Z,11.38
2019-03-19T12:45:10.860Z,10.48
2019-03-19T12:47:39.172Z,7.58
2019-03-19T12:50:10.970Z,10.28
2019-03-19T12:52:39.290Z,9.45
2019-03-19T12:55:08.250Z,11.68
2019-03-19T12:57:36.552Z,10.60
2019-03-19T13:00:08.507Z,9.00
2019-03-19T13:02:36.897Z,8.63
2019-03-19T13:05:07.040Z,9.65
2019-03-19T13:07:35.350Z,11.73
2019-03-19T13:10:06.886Z,10.80
2019-03-19T13:12:35.178Z,10.63
2019-03-19T13:15:04.463Z,10.72
2019-03-19T13:17:32.775Z,9.45
2019-03-19T13:20:01.079Z,8.33
2019-03-19T13:22:29.378Z,10.20
2019-03-19T13:24:57.700Z,10.35
2019-03-19T13:27:26.001Z,10.82
2019-03-19T13:29:54.686Z,9.68
2019-03-19T13:32:23.065Z,10.93
2019-03-19T13:34:51.369Z,13.28
2019-03-19T13:37:20.014Z,9.50
2019-03-19T13:39:48.587Z,11.10
2019-03-19T13:42:16.874Z,11.00
2019-03-19T13:44:45.196Z,16.00
2019-03-19T13:47:13.519Z,9.15
2019-03-19T13:49:43.373Z,11.55
2019-03-19T13:52:11.942Z,10.43
2019-03-19T13:54:40.245Z,11.10
2019-03-19T13:57:08.549Z,9.75
2019-03-19T13:59:36.852Z,8.90
2019-03-19T14:02:05.176Z,10.28
2019-03-19T14:04:33.459Z,7.45
2019-03-19T14:07:01.764Z,13.55
2019-03-19T14:09:30.231Z,14.43
2019-03-19T14:11:58.559Z,9.63
2019-03-19T14:14:26.875Z,8.50
2019-03-19T14:16:55.162Z,7.50
2019-03-19T14:19:23.465Z,12.95
2019-03-19T14:21:51.785Z,10.10
2019-03-19T14:24:20.090Z,10.73
2019-03-19T14:26:50.399Z,9.95
2019-03-19T14:29:18.419Z,9.63
2019-03-19T14:31:46.720Z,11.45
2019-03-19T14:34:15.025Z,9.83
2019-03-19T14:36:43.329Z,10.35
2019-03-19T14:39:11.645Z,5.70
2019-03-19T14:41:39.971Z,12.65
2019-03-19T14:44:08.333Z,8.65
2019-03-19T14:46:36.649Z,7.90
2019-03-19T14:49:05.146Z,7.22
2019-03-19T14:51:33.441Z,7.92
2019-03-19T14:54:01.751Z,11.38
2019-03-19T14:56:30.067Z,8.48
2019-03-19T14:58:58.648Z,6.60
2019-03-19T15:01:26.953Z,9.05
2019-03-19T15:03:55.237Z,8.80
2019-03-19T15:06:23.546Z,10.43
2019-03-19T15:08:51.835Z,8.65
2019-03-19T15:11:20.177Z,8.53
2019-03-19T15:13:48.815Z,9.13
2019-03-19T15:16:17.402Z,6.62
2019-03-19T15:18:45.985Z,8.33
2019-03-19T15:21:14.685Z,9.03
2019-03-19T15:23:42.981Z,5.97
2019-03-19T15:26:11.269Z,9.30
2019-03-19T15:28:39.587Z,8.48
2019-03-19T15:31:07.894Z,13.55
2019-03-19T15:33:36.469Z,7.00
2019-03-19T15:36:04.764Z,9.53
2019-03-19T15:38:33.064Z,7.92
2019-03-19T15:41:01.354Z,11.38
2019-03-19T15:43:29.995Z,10.58
2019-03-19T15:45:58.282Z,8.33
2019-03-19T15:48:26.593Z,7.57
2019-03-19T15:50:55.214Z,8.90
2019-03-19T15:53:23.605Z,8.95
2019-03-19T15:55:51.931Z,10.72
2019-03-19T15:58:20.224Z,11.50
2019-03-19T16:00:48.550Z,6.33
2019-03-19T16:03:17.129Z,6.67
2019-03-19T16:05:45.438Z,10.15
2019-03-19T16:08:13.724Z,9.98
2019-03-19T16:10:42.029Z,9.58
2019-03-19T16:13:10.634Z,11.43
2019-03-19T16:15:39.020Z,7.67
2019-03-19T16:18:07.591Z,10.15
2019-03-19T16:20:35.900Z,8.55
2019-03-19T16:23:04.212Z,8.55
2019-03-19T16:25:32.834Z,8.03
2019-03-19T16:28:01.143Z,7.97
2019-03-19T16:30:29.477Z,8.58
2019-03-19T16:32:57.772Z,13.08
2019-03-19T16:35:26.073Z,7.75
2019-03-19T16:37:54.370Z,7.90
2019-03-19T16:40:23.503Z,14.50
2019-03-19T16:42:51.817Z,8.87
2019-03-19T16:45:20.201Z,10.72
2019-03-19T16:47:48.878Z,6.60
2019-03-19T16:50:18.308Z,6.45
2019-03-19T16:52:47.144Z,11.80
2019-03-19T16:55:17.440Z,10.43
2019-03-19T16:57:46.061Z,8.70
2019-03-19T17:00:20.177Z,7.60
2019-03-19T17:02:48.487Z,8.03
2019-03-19T17:05:17.721Z,8.57
2019-03-19T17:07:46.024Z,8.57
2019-03-19T17:10:20.572Z,8.20
2019-03-19T17:12:49.240Z,10.50
2019-03-19T17:15:17.694Z,14.23
2019-03-19T17:17:46.370Z,8.60
2019-03-19T17:20:16.774Z,9.73
2019-03-19T17:22:45.058Z,9.85
2019-03-19T17:25:18.528Z,7.50
2019-03-19T17:27:46.885Z,7.13
2019-03-19T17:30:23.853Z,48.52
2019-03-19T17:32:52.534Z,25.20
2019-03-19T17:35:20.906Z,24.05
2019-03-19T17:37:49.216Z,14.70
2019-03-19T17:40:17.602Z,15.50
2019-03-19T17:42:45.889Z,13.47
2019-03-19T17:45:17.090Z,11.10
2019-03-19T17:47:45.464Z,11.70
2019-03-19T17:50:21.332Z,13.10
2019-03-19T17:52:53.625Z,15.50
2019-03-19T17:55:22.279Z,21.60
2019-03-19T17:57:50.872Z,16.97
2019-03-19T18:00:23.897Z,18.07
2019-03-19T18:02:52.201Z,18.10
2019-03-19T18:05:20.819Z,16.23
2019-03-19T18:07:49.225Z,19.42
2019-03-19T18:10:17.513Z,21.80
2019-03-19T18:12:45.825Z,18.10
2019-03-19T18:15:18.928Z,14.37
2019-03-19T18:17:47.252Z,16.40
2019-03-19T18:20:16.197Z,16.55
2019-03-19T18:22:44.847Z,15.58
2019-03-19T18:25:17.482Z,16.25
2019-03-19T18:27:45.891Z,15.80
2019-03-19T18:30:22.901Z,18.00
2019-03-19T18:32:51.221Z,17.00
2019-03-19T18:35:19.515Z,16.25
2019-03-19T18:37:47.802Z,12.85
2019-03-19T18:40:18.137Z,15.25
2019-03-19T18:42:46.473Z,14.90
2019-03-19T18:45:15.924Z,13.93
2019-03-19T18:47:44.226Z,14.67
2019-03-19T18:50:15.147Z,14.20
2019-03-19T18:52:43.444Z,18.30
2019-03-19T18:55:11.981Z,17.25
2019-03-19T18:57:41.538Z,14.18
2019-03-19T19:00:18.534Z,14.10
2019-03-19T19:02:50.165Z,12.43
2019-03-19T19:05:17.989Z,13.32
2019-03-19T19:07:46.307Z,18.12
2019-03-19T19:10:15.644Z,17.00
2019-03-19T19:12:44.321Z,13.58
2019-03-19T19:15:25.296Z,16.52
2019-03-19T19:17:53.617Z,18.15
2019-03-19T19:20:21.916Z,13.85
2019-03-19T19:22:50.235Z,16.90
2019-03-19T19:25:22.772Z,15.60
2019-03-19T19:27:51.352Z,18.15
2019-03-19T19:30:20.810Z,15.83
2019-03-19T19:33:00.483Z,25.62
2019-03-19T19:35:19.578Z,18.45
2019-03-19T19:37:47.894Z,20.72
2019-03-19T19:40:17.177Z,19.02
2019-03-19T19:42:45.469Z,18.67
2019-03-19T19:45:14.720Z,19.30
2019-03-19T19:47:43.016Z,16.00
2019-03-19T19:50:15.951Z,18.85
2019-03-19T19:52:44.327Z,20.45
2019-03-19T19:55:13.993Z,21.33
2019-03-19T19:57:42.317Z,23.20
2019-03-19T20:00:18.339Z,29.18
2019-03-19T20:02:46.702Z,27.30
2019-03-19T20:05:15.025Z,31.15
2019-03-19T20:07:43.354Z,29.75
2019-03-19T20:10:27.512Z,21.80
2019-03-19T20:12:55.811Z,26.42
2019-03-19T20:15:24.135Z,19.73
2019-03-19T20:17:52.465Z,25.05
2019-03-19T20:20:22.561Z,20.87
2019-03-19T20:22:50.864Z,20.50
2019-03-19T20:25:19.170Z,19.73
2019-03-19T20:27:47.483Z,17.48
2019-03-19T20:30:20.889Z,15.85
2019-03-19T20:32:49.217Z,16.30
2019-03-19T20:35:17.664Z,18.50
2019-03-19T20:37:46.022Z,19.67
2019-03-19T20:40:15.260Z,18.55
2019-03-19T20:42:43.581Z,19.55
2019-03-19T20:45:14.589Z,18.55
2019-03-19T20:47:42.924Z,17.87
2019-03-19T20:50:14.428Z,16.00
2019-03-19T20:52:42.750Z,12.53
2019-03-19T20:55:11.049Z,14.47
2019-03-19T20:57:39.338Z,11.85
2019-03-19T21:00:18.666Z,12.75
2019-03-19T21:02:46.975Z,13.45
2019-03-19T21:05:15.352Z,16.05
2019-03-19T21:07:43.787Z,14.75
2019-03-19T21:10:17.117Z,16.20
2019-03-19T21:12:45.578Z,14.85
2019-03-19T21:15:22.162Z,15.23
2019-03-19T21:17:50.468Z,12.20
2019-03-19T21:20:18.779Z,13.98
2019-03-19T21:22:47.077Z,14.85
2019-03-19T21:25:15.562Z,15.35
2019-03-19T21:27:44.099Z,12.20
2019-03-19T21:30:17.219Z,18.27
2019-03-19T21:32:45.584Z,11.93
2019-03-19T21:35:13.960Z,16.02
2019-03-19T21:37:42.278Z,14.83
2019-03-19T21:40:15.122Z,12.88
2019-03-19T21:42:43.691Z,12.53
2019-03-19T21:45:22.348Z,15.45
2019-03-19T21:47:51.200Z,17.77
2019-03-19T21:50:24.443Z,17.37
2019-03-19T21:52:52.837Z,14.10
2019-03-19T21:55:21.161Z,15.00
2019-03-19T21:57:49.797Z,15.23
2019-03-19T22:00:20.635Z,16.40
2019-03-19T22:02:49.256Z,13.10
2019-03-19T22:05:17.613Z,14.00
2019-03-19T22:07:45.988Z,15.90
2019-03-19T22:10:16.666Z,17.15
2019-03-19T22:12:44.968Z,22.07
2019-03-19T22:15:16.457Z,19.15
2019-03-19T22:17:44.745Z,17.37
2019-03-19T22:20:13.902Z,18.65
2019-03-19T22:22:42.269Z,17.57
2019-03-19T22:25:14.194Z,16.93
2019-03-19T22:27:42.494Z,15.63
2019-03-19T22:30:16.451Z,15.68
2019-03-19T22:32:44.828Z,16.95
2019-03-19T22:35:13.358Z,17.67
2019-03-19T22:37:41.678Z,15.80
2019-03-19T22:40:15.047Z,16.27
2019-03-19T22:42:43.345Z,17.40
2019-03-19T22:45:13.569Z,20.33
2019-03-19T22:47:41.985Z,19.07
2019-03-19T22:50:13.036Z,20.50
2019-03-19T22:52:41.430Z,15.40
2019-03-19T22:55:11.570Z,18.65
2019-03-19T22:57:40.226Z,17.62
2019-03-19T23:00:33.613Z,12.85
2019-03-19T23:03:02.000Z,18.30
2019-03-19T23:05:30.296Z,14.38
2019-03-19T23:07:58.586Z,15.45
2019-03-19T23:10:26.899Z,18.53
2019-03-19T23:12:55.261Z,12.33
2019-03-19T23:15:23.595Z,12.85
2019-03-19T23:17:51.904Z,13.53
2019-03-19T23:20:20.371Z,13.57
2019-03-19T23:22:48.839Z,11.97
2019-03-19T23:25:17.204Z,11.50
2019-03-19T23:27:45.525Z,15.53
2019-03-19T23:30:21.399Z,17.55
2019-03-19T23:32:49.963Z,26.42
2019-03-19T23:35:18.270Z,37.17
2019-03-19T23:37:46.575Z,33.98
2019-03-19T23:40:17.018Z,27.82
2019-03-19T23:42:45.321Z,27.50
2019-03-19T23:45:14.202Z,30.60
2019-03-19T23:47:42.549Z,25.80
2019-03-19T23:50:21.094Z,21.60
2019-03-19T23:52:49.461Z,24.60
2019-03-19T23:55:17.766Z,19.43
2019-03-19T23:57:46.110Z,19.65
